sensor_id;sensor_type;location;lat;lon;timestamp;temperature;humidity
12384;DHT22;6256;63.808;20.336;2022-08-21T00:00:00;18.40;99.90
12384;DHT22;6256;63.808;20.336;2022-08-21T00:02:27;18.40;99.90
12384;DHT22;6256;63.808;20.336;2022-08-21T00:04:54;18.40;99.90
12384;DHT22;6256;63.808;20.336;2022-08-21T00:07:20;18.40;99.90
12384;DHT22;6256;63.808;20.336;2022-08-21T00:09:47;18.30;99.90
12384;DHT22;6256;63.808;20.336;2022-08-21T00:12:13;18.40;99.90
12384;DHT22;6256;63.808;20.336;2022-08-21T00:14:40;18.40;99.90
12384;DHT22;6256;63.808;20.336;2022-08-21T00:17:08;18.40;99.90
12384;DHT22;6256;63.808;20.336;2022-08-21T00:19:34;18.40;99.90
12384;DHT22;6256;63.808;20.336;2022-08-21T00:22:00;18.30;99.90
12384;DHT22;6256;63.808;20.336;2022-08-21T00:24:26;18.40;99.90
12384;DHT22;6256;63.808;20.336;2022-08-21T00:26:52;18.40;99.90
12384;DHT22;6256;63.808;20.336;2022-08-21T00:29:18;18.40;99.90
12384;DHT22;6256;63.808;20.336;2022-08-21T00:31:44;18.40;99.90
12384;DHT22;6256;63.808;20.336;2022-08-21T00:34:11;18.40;99.90
12384;DHT22;6256;63.808;20.336;2022-08-21T00:36:38;18.40;99.90
12384;DHT22;6256;63.808;20.336;2022-08-21T00:39:08;18.40;99.90
12384;DHT22;6256;63.808;20.336;2022-08-21T00:41:36;18.40;99.90
12384;DHT22;6256;63.808;20.336;2022-08-21T00:44:03;18.30;99.90
12384;DHT22;6256;63.808;20.336;2022-08-21T00:46:29;18.30;99.90
12384;DHT22;6256;63.808;20.336;2022-08-21T00:48:55;18.30;99.90
12384;DHT22;6256;63.808;20.336;2022-08-21T00:51:32;18.40;99.90
12384;DHT22;6256;63.808;20.336;2022-08-21T00:54:01;18.40;99.90
12384;DHT22;6256;63.808;20.336;2022-08-21T00:56:27;18.40;99.90
12384;DHT22;6256;63.808;20.336;2022-08-21T00:58:56;18.40;99.90
12384;DHT22;6256;63.808;20.336;2022-08-21T01:01:22;18.40;99.90
12384;DHT22;6256;63.808;20.336;2022-08-21T01:03:51;18.30;99.90
12384;DHT22;6256;63.808;20.336;2022-08-21T01:06:16;18.40;99.90
12384;DHT22;6256;63.808;20.336;2022-08-21T01:08:43;18.40;99.90
12384;DHT22;6256;63.808;20.336;2022-08-21T01:11:09;18.40;99.90
12384;DHT22;6256;63.808;20.336;2022-08-21T01:13:36;18.40;99.90
12384;DHT22;6256;63.808;20.336;2022-08-21T01:16:08;18.40;99.90
12384;DHT22;6256;63.808;20.336;2022-08-21T01:18:34;18.40;99.90
12384;DHT22;6256;63.808;20.336;2022-08-21T01:21:12;18.30;99.90
12384;DHT22;6256;63.808;20.336;2022-08-21T01:23:41;18.20;99.90
12384;DHT22;6256;63.808;20.336;2022-08-21T01:26:07;18.30;99.90
12384;DHT22;6256;63.808;20.336;2022-08-21T01:28:38;18.30;99.90
12384;DHT22;6256;63.808;20.336;2022-08-21T01:31:07;18.30;99.90
12384;DHT22;6256;63.808;20.336;2022-08-21T01:33:34;18.30;99.90
12384;DHT22;6256;63.808;20.336;2022-08-21T01:36:00;18.30;99.90
12384;DHT22;6256;63.808;20.336;2022-08-21T01:38:26;18.30;99.90
12384;DHT22;6256;63.808;20.336;2022-08-21T01:40:52;18.30;99.90
12384;DHT22;6256;63.808;20.336;2022-08-21T01:43:17;18.30;99.90
12384;DHT22;6256;63.808;20.336;2022-08-21T01:45:43;18.30;99.90
12384;DHT22;6256;63.808;20.336;2022-08-21T01:48:09;18.30;99.90
12384;DHT22;6256;63.808;20.336;2022-08-21T01:50:36;18.30;99.90
12384;DHT22;6256;63.808;20.336;2022-08-21T01:53:02;18.30;99.90
12384;DHT22;6256;63.808;20.336;2022-08-21T01:55:27;18.30;99.90
12384;DHT22;6256;63.808;20.336;2022-08-21T01:57:53;18.30;99.90
12384;DHT22;6256;63.808;20.336;2022-08-21T02:00:26;18.30;99.90
12384;DHT22;6256;63.808;20.336;2022-08-21T02:02:52;18.30;99.90
12384;DHT22;6256;63.808;20.336;2022-08-21T02:05:18;18.30;99.90
12384;DHT22;6256;63.808;20.336;2022-08-21T02:07:47;18.30;99.90
12384;DHT22;6256;63.808;20.336;2022-08-21T02:10:17;18.40;99.90
12384;DHT22;6256;63.808;20.336;2022-08-21T02:12:43;18.40;99.90
12384;DHT22;6256;63.808;20.336;2022-08-21T02:15:09;18.30;99.90
12384;DHT22;6256;63.808;20.336;2022-08-21T02:17:43;18.30;99.90
12384;DHT22;6256;63.808;20.336;2022-08-21T02:20:17;18.30;99.90
12384;DHT22;6256;63.808;20.336;2022-08-21T02:22:43;18.30;99.90
12384;DHT22;6256;63.808;20.336;2022-08-21T02:25:08;18.30;99.90
12384;DHT22;6256;63.808;20.336;2022-08-21T02:27:40;18.30;99.90
12384;DHT22;6256;63.808;20.336;2022-08-21T02:30:07;18.30;99.90
12384;DHT22;6256;63.808;20.336;2022-08-21T02:32:32;18.30;99.90
12384;DHT22;6256;63.808;20.336;2022-08-21T02:34:58;18.30;99.90
12384;DHT22;6256;63.808;20.336;2022-08-21T02:37:24;18.30;99.90
12384;DHT22;6256;63.808;20.336;2022-08-21T02:39:51;18.30;99.90
12384;DHT22;6256;63.808;20.336;2022-08-21T02:42:18;18.30;99.90
12384;DHT22;6256;63.808;20.336;2022-08-21T02:44:43;18.30;99.90
12384;DHT22;6256;63.808;20.336;2022-08-21T02:47:09;18.30;99.90
12384;DHT22;6256;63.808;20.336;2022-08-21T02:49:35;18.30;99.90
12384;DHT22;6256;63.808;20.336;2022-08-21T02:52:00;18.30;99.90
12384;DHT22;6256;63.808;20.336;2022-08-21T02:54:26;18.30;99.90
12384;DHT22;6256;63.808;20.336;2022-08-21T02:56:52;18.30;99.90
12384;DHT22;6256;63.808;20.336;2022-08-21T02:59:18;18.30;99.90
12384;DHT22;6256;63.808;20.336;2022-08-21T03:01:43;18.30;99.90
12384;DHT22;6256;63.808;20.336;2022-08-21T03:04:09;18.30;99.90
12384;DHT22;6256;63.808;20.336;2022-08-21T03:06:35;18.30;99.90
12384;DHT22;6256;63.808;20.336;2022-08-21T03:09:02;18.40;99.90
12384;DHT22;6256;63.808;20.336;2022-08-21T03:11:28;18.30;99.90
12384;DHT22;6256;63.808;20.336;2022-08-21T03:13:53;18.20;99.90
12384;DHT22;6256;63.808;20.336;2022-08-21T03:16:19;18.20;99.90
12384;DHT22;6256;63.808;20.336;2022-08-21T03:18:46;18.20;99.90
12384;DHT22;6256;63.808;20.336;2022-08-21T03:21:12;18.30;99.90
12384;DHT22;6256;63.808;20.336;2022-08-21T03:23:39;18.20;99.90
12384;DHT22;6256;63.808;20.336;2022-08-21T03:26:06;18.20;99.90
12384;DHT22;6256;63.808;20.336;2022-08-21T03:28:32;18.30;99.90
12384;DHT22;6256;63.808;20.336;2022-08-21T03:30:58;18.30;99.90
12384;DHT22;6256;63.808;20.336;2022-08-21T03:33:24;18.20;99.90
12384;DHT22;6256;63.808;20.336;2022-08-21T03:36:01;18.20;99.90
12384;DHT22;6256;63.808;20.336;2022-08-21T03:38:29;18.30;99.90
12384;DHT22;6256;63.808;20.336;2022-08-21T03:40:56;18.30;99.90
12384;DHT22;6256;63.808;20.336;2022-08-21T03:43:21;18.20;99.90
12384;DHT22;6256;63.808;20.336;2022-08-21T03:45:47;18.20;99.90
12384;DHT22;6256;63.808;20.336;2022-08-21T03:48:13;18.30;99.90
12384;DHT22;6256;63.808;20.336;2022-08-21T03:50:42;18.30;99.90
12384;DHT22;6256;63.808;20.336;2022-08-21T03:53:10;18.20;99.90
12384;DHT22;6256;63.808;20.336;2022-08-21T03:55:36;18.30;99.90
12384;DHT22;6256;63.808;20.336;2022-08-21T03:58:02;18.30;99.90
12384;DHT22;6256;63.808;20.336;2022-08-21T04:00:28;18.30;99.90
12384;DHT22;6256;63.808;20.336;2022-08-21T04:02:54;18.30;99.90
12384;DHT22;6256;63.808;20.336;2022-08-21T04:05:20;18.30;99.90
12384;DHT22;6256;63.808;20.336;2022-08-21T04:07:54;18.30;99.90
12384;DHT22;6256;63.808;20.336;2022-08-21T04:10:20;18.30;99.90
12384;DHT22;6256;63.808;20.336;2022-08-21T04:12:46;18.30;99.90
12384;DHT22;6256;63.808;20.336;2022-08-21T04:15:12;18.30;99.90
12384;DHT22;6256;63.808;20.336;2022-08-21T04:17:38;18.40;99.90
12384;DHT22;6256;63.808;20.336;2022-08-21T04:20:04;18.40;99.90
12384;DHT22;6256;63.808;20.336;2022-08-21T04:22:30;18.40;99.90
12384;DHT22;6256;63.808;20.336;2022-08-21T04:24:56;18.40;99.90
12384;DHT22;6256;63.808;20.336;2022-08-21T04:27:21;18.30;99.90
12384;DHT22;6256;63.808;20.336;2022-08-21T04:29:47;18.30;99.90
12384;DHT22;6256;63.808;20.336;2022-08-21T04:32:13;18.30;99.90
12384;DHT22;6256;63.808;20.336;2022-08-21T04:34:39;18.30;99.90
12384;DHT22;6256;63.808;20.336;2022-08-21T04:37:04;18.40;99.90
12384;DHT22;6256;63.808;20.336;2022-08-21T04:39:30;18.30;99.90
12384;DHT22;6256;63.808;20.336;2022-08-21T04:41:56;18.30;99.90
12384;DHT22;6256;63.808;20.336;2022-08-21T04:44:21;18.30;99.90
12384;DHT22;6256;63.808;20.336;2022-08-21T04:46:47;18.30;99.90
12384;DHT22;6256;63.808;20.336;2022-08-21T04:49:13;18.30;99.90
12384;DHT22;6256;63.808;20.336;2022-08-21T04:51:39;18.30;99.90
12384;DHT22;6256;63.808;20.336;2022-08-21T04:54:10;18.40;99.90
12384;DHT22;6256;63.808;20.336;2022-08-21T04:56:51;18.40;99.90
12384;DHT22;6256;63.808;20.336;2022-08-21T04:59:21;18.40;99.90
12384;DHT22;6256;63.808;20.336;2022-08-21T05:01:48;18.40;99.90
12384;DHT22;6256;63.808;20.336;2022-08-21T05:04:17;18.40;99.90
12384;DHT22;6256;63.808;20.336;2022-08-21T05:06:45;18.30;99.90
12384;DHT22;6256;63.808;20.336;2022-08-21T05:09:14;18.40;99.90
12384;DHT22;6256;63.808;20.336;2022-08-21T05:11:44;18.40;99.90
12384;DHT22;6256;63.808;20.336;2022-08-21T05:14:11;18.40;99.90
12384;DHT22;6256;63.808;20.336;2022-08-21T05:16:37;18.50;99.90
12384;DHT22;6256;63.808;20.336;2022-08-21T05:19:04;18.50;99.90
12384;DHT22;6256;63.808;20.336;2022-08-21T05:21:30;18.50;99.90
12384;DHT22;6256;63.808;20.336;2022-08-21T05:23:56;18.50;99.90
12384;DHT22;6256;63.808;20.336;2022-08-21T05:26:22;18.50;99.90
12384;DHT22;6256;63.808;20.336;2022-08-21T05:28:47;18.50;99.90
12384;DHT22;6256;63.808;20.336;2022-08-21T05:31:13;18.50;99.90
12384;DHT22;6256;63.808;20.336;2022-08-21T05:33:39;18.50;99.90
12384;DHT22;6256;63.808;20.336;2022-08-21T05:36:05;18.50;99.90
12384;DHT22;6256;63.808;20.336;2022-08-21T05:38:30;18.50;99.90
12384;DHT22;6256;63.808;20.336;2022-08-21T05:40:56;18.50;99.90
12384;DHT22;6256;63.808;20.336;2022-08-21T05:43:22;18.50;99.90
12384;DHT22;6256;63.808;20.336;2022-08-21T05:45:48;18.50;99.90
12384;DHT22;6256;63.808;20.336;2022-08-21T05:48:22;18.60;99.90
12384;DHT22;6256;63.808;20.336;2022-08-21T05:50:49;18.50;99.90
12384;DHT22;6256;63.808;20.336;2022-08-21T05:53:16;18.50;99.90
12384;DHT22;6256;63.808;20.336;2022-08-21T05:55:43;18.50;99.90
12384;DHT22;6256;63.808;20.336;2022-08-21T05:58:09;18.50;99.90
12384;DHT22;6256;63.808;20.336;2022-08-21T06:00:34;18.50;99.90
12384;DHT22;6256;63.808;20.336;2022-08-21T06:03:00;18.50;99.90
12384;DHT22;6256;63.808;20.336;2022-08-21T06:05:26;18.60;99.90
12384;DHT22;6256;63.808;20.336;2022-08-21T06:07:52;18.50;99.90
12384;DHT22;6256;63.808;20.336;2022-08-21T06:10:18;18.50;99.90
12384;DHT22;6256;63.808;20.336;2022-08-21T06:12:44;18.50;99.90
12384;DHT22;6256;63.808;20.336;2022-08-21T06:15:13;18.60;99.90
12384;DHT22;6256;63.808;20.336;2022-08-21T06:17:38;18.60;99.90
12384;DHT22;6256;63.808;20.336;2022-08-21T06:20:04;18.60;99.90
12384;DHT22;6256;63.808;20.336;2022-08-21T06:22:30;18.50;99.90
12384;DHT22;6256;63.808;20.336;2022-08-21T06:24:56;18.60;99.90
12384;DHT22;6256;63.808;20.336;2022-08-21T06:27:22;18.50;99.90
12384;DHT22;6256;63.808;20.336;2022-08-21T06:29:47;18.50;99.90
12384;DHT22;6256;63.808;20.336;2022-08-21T06:32:16;18.50;99.90
12384;DHT22;6256;63.808;20.336;2022-08-21T06:34:42;18.40;99.90
12384;DHT22;6256;63.808;20.336;2022-08-21T06:37:08;18.40;99.90
12384;DHT22;6256;63.808;20.336;2022-08-21T06:39:34;18.40;99.90
12384;DHT22;6256;63.808;20.336;2022-08-21T06:42:00;18.40;99.90
12384;DHT22;6256;63.808;20.336;2022-08-21T06:44:26;18.30;99.90
12384;DHT22;6256;63.808;20.336;2022-08-21T06:46:51;18.30;99.90
12384;DHT22;6256;63.808;20.336;2022-08-21T06:49:17;18.30;99.90
12384;DHT22;6256;63.808;20.336;2022-08-21T06:51:43;18.30;99.90
12384;DHT22;6256;63.808;20.336;2022-08-21T06:54:09;18.20;99.90
12384;DHT22;6256;63.808;20.336;2022-08-21T06:56:35;18.20;99.90
12384;DHT22;6256;63.808;20.336;2022-08-21T06:59:03;18.30;99.90
12384;DHT22;6256;63.808;20.336;2022-08-21T07:01:29;18.20;99.90
12384;DHT22;6256;63.808;20.336;2022-08-21T07:03:55;18.20;99.90
12384;DHT22;6256;63.808;20.336;2022-08-21T07:06:20;18.30;99.90
12384;DHT22;6256;63.808;20.336;2022-08-21T07:08:46;18.30;99.90
12384;DHT22;6256;63.808;20.336;2022-08-21T07:11:19;18.30;99.90
12384;DHT22;6256;63.808;20.336;2022-08-21T07:13:45;18.30;99.90
12384;DHT22;6256;63.808;20.336;2022-08-21T07:16:11;18.20;99.90
12384;DHT22;6256;63.808;20.336;2022-08-21T07:18:37;18.20;99.90
12384;DHT22;6256;63.808;20.336;2022-08-21T07:21:05;18.20;99.90
12384;DHT22;6256;63.808;20.336;2022-08-21T07:23:36;18.20;99.90
12384;DHT22;6256;63.808;20.336;2022-08-21T07:26:04;18.20;99.90
12384;DHT22;6256;63.808;20.336;2022-08-21T07:28:30;18.30;99.90
12384;DHT22;6256;63.808;20.336;2022-08-21T07:30:57;18.30;99.90
12384;DHT22;6256;63.808;20.336;2022-08-21T07:33:25;18.30;99.90
12384;DHT22;6256;63.808;20.336;2022-08-21T07:35:52;18.40;99.90
12384;DHT22;6256;63.808;20.336;2022-08-21T07:38:18;18.40;99.90
12384;DHT22;6256;63.808;20.336;2022-08-21T07:40:45;18.40;99.90
12384;DHT22;6256;63.808;20.336;2022-08-21T07:43:11;18.50;99.90
12384;DHT22;6256;63.808;20.336;2022-08-21T07:45:37;18.40;99.90
12384;DHT22;6256;63.808;20.336;2022-08-21T07:48:04;18.40;99.90
12384;DHT22;6256;63.808;20.336;2022-08-21T07:50:29;18.40;99.90
12384;DHT22;6256;63.808;20.336;2022-08-21T07:52:55;18.50;99.90
12384;DHT22;6256;63.808;20.336;2022-08-21T07:55:22;18.50;99.90
12384;DHT22;6256;63.808;20.336;2022-08-21T07:57:48;18.60;99.90
12384;DHT22;6256;63.808;20.336;2022-08-21T08:00:17;18.60;99.90
12384;DHT22;6256;63.808;20.336;2022-08-21T08:02:45;18.60;99.90
12384;DHT22;6256;63.808;20.336;2022-08-21T08:05:12;18.60;99.90
12384;DHT22;6256;63.808;20.336;2022-08-21T08:07:38;18.60;99.90
12384;DHT22;6256;63.808;20.336;2022-08-21T08:10:05;18.70;99.90
12384;DHT22;6256;63.808;20.336;2022-08-21T08:12:42;18.60;99.90
12384;DHT22;6256;63.808;20.336;2022-08-21T08:15:12;18.70;99.90
12384;DHT22;6256;63.808;20.336;2022-08-21T08:17:39;18.70;99.90
12384;DHT22;6256;63.808;20.336;2022-08-21T08:20:06;18.70;99.90
12384;DHT22;6256;63.808;20.336;2022-08-21T08:22:34;18.70;99.90
12384;DHT22;6256;63.808;20.336;2022-08-21T08:25:00;18.70;99.90
12384;DHT22;6256;63.808;20.336;2022-08-21T08:27:27;18.60;99.90
12384;DHT22;6256;63.808;20.336;2022-08-21T08:29:53;18.70;99.90
12384;DHT22;6256;63.808;20.336;2022-08-21T08:32:19;18.70;99.90
12384;DHT22;6256;63.808;20.336;2022-08-21T08:34:45;18.70;99.90
12384;DHT22;6256;63.808;20.336;2022-08-21T08:37:12;18.70;99.90
12384;DHT22;6256;63.808;20.336;2022-08-21T08:39:38;18.70;99.90
12384;DHT22;6256;63.808;20.336;2022-08-21T08:42:12;18.70;99.90
12384;DHT22;6256;63.808;20.336;2022-08-21T08:44:43;18.70;99.90
12384;DHT22;6256;63.808;20.336;2022-08-21T08:47:16;18.70;99.90
12384;DHT22;6256;63.808;20.336;2022-08-21T08:49:56;18.70;99.90
12384;DHT22;6256;63.808;20.336;2022-08-21T08:52:29;18.70;99.90
12384;DHT22;6256;63.808;20.336;2022-08-21T08:55:06;18.70;99.90
12384;DHT22;6256;63.808;20.336;2022-08-21T08:57:34;18.70;99.90
12384;DHT22;6256;63.808;20.336;2022-08-21T09:00:07;18.60;99.90
12384;DHT22;6256;63.808;20.336;2022-08-21T09:02:34;18.60;99.90
12384;DHT22;6256;63.808;20.336;2022-08-21T09:05:00;18.50;99.90
12384;DHT22;6256;63.808;20.336;2022-08-21T09:10:09;18.50;99.90
12384;DHT22;6256;63.808;20.336;2022-08-21T09:12:48;18.50;99.90
12384;DHT22;6256;63.808;20.336;2022-08-21T09:27:00;18.50;99.90
12384;DHT22;6256;63.808;20.336;2022-08-21T09:29:31;18.50;99.90
12384;DHT22;6256;63.808;20.336;2022-08-21T09:31:58;18.50;99.90
12384;DHT22;6256;63.808;20.336;2022-08-21T09:34:29;18.50;99.90
12384;DHT22;6256;63.808;20.336;2022-08-21T09:36:55;18.50;99.90
12384;DHT22;6256;63.808;20.336;2022-08-21T09:39:37;18.50;99.90
12384;DHT22;6256;63.808;20.336;2022-08-21T09:42:06;18.50;99.90
12384;DHT22;6256;63.808;20.336;2022-08-21T09:44:38;18.40;99.90
12384;DHT22;6256;63.808;20.336;2022-08-21T09:47:07;18.40;99.90
12384;DHT22;6256;63.808;20.336;2022-08-21T09:49:36;18.50;99.90
12384;DHT22;6256;63.808;20.336;2022-08-21T09:52:06;18.50;99.90
12384;DHT22;6256;63.808;20.336;2022-08-21T09:54:39;18.50;99.90
12384;DHT22;6256;63.808;20.336;2022-08-21T09:59:53;18.50;99.90
12384;DHT22;6256;63.808;20.336;2022-08-21T10:02:22;18.50;99.90
12384;DHT22;6256;63.808;20.336;2022-08-21T10:04:54;18.60;99.90
12384;DHT22;6256;63.808;20.336;2022-08-21T10:07:22;18.70;99.90
12384;DHT22;6256;63.808;20.336;2022-08-21T10:21:13;19.10;99.90
12384;DHT22;6256;63.808;20.336;2022-08-21T10:26:40;19.10;99.90
12384;DHT22;6256;63.808;20.336;2022-08-21T10:29:23;19.10;99.90
12384;DHT22;6256;63.808;20.336;2022-08-21T10:34:54;19.40;99.90
12384;DHT22;6256;63.808;20.336;2022-08-21T10:42:57;19.70;99.90
12384;DHT22;6256;63.808;20.336;2022-08-21T10:48:22;19.90;99.90
12384;DHT22;6256;63.808;20.336;2022-08-21T10:50:54;20.00;99.90
12384;DHT22;6256;63.808;20.336;2022-08-21T10:53:36;20.00;99.90
12384;DHT22;6256;63.808;20.336;2022-08-21T10:56:24;20.00;99.90
12384;DHT22;6256;63.808;20.336;2022-08-21T11:04:33;19.90;99.90
12384;DHT22;6256;63.808;20.336;2022-08-21T11:07:07;19.90;99.90
12384;DHT22;6256;63.808;20.336;2022-08-21T11:09:37;20.00;99.90
12384;DHT22;6256;63.808;20.336;2022-08-21T11:12:33;20.00;99.90
12384;DHT22;6256;63.808;20.336;2022-08-21T11:15:07;20.10;99.90
12384;DHT22;6256;63.808;20.336;2022-08-21T11:17:52;20.00;99.90
12384;DHT22;6256;63.808;20.336;2022-08-21T11:23:07;20.40;99.90
12384;DHT22;6256;63.808;20.336;2022-08-21T11:25:41;20.20;99.90
12384;DHT22;6256;63.808;20.336;2022-08-21T11:28:22;20.30;99.90
12384;DHT22;6256;63.808;20.336;2022-08-21T11:30:58;20.30;99.90
12384;DHT22;6256;63.808;20.336;2022-08-21T11:39:16;19.80;99.90
12384;DHT22;6256;63.808;20.336;2022-08-21T11:41:59;19.70;99.90
12384;DHT22;6256;63.808;20.336;2022-08-21T11:45:02;19.90;99.90
12384;DHT22;6256;63.808;20.336;2022-08-21T11:50:30;19.70;99.90
12384;DHT22;6256;63.808;20.336;2022-08-21T11:53:32;19.70;99.90
12384;DHT22;6256;63.808;20.336;2022-08-21T11:56:10;19.80;99.90
12384;DHT22;6256;63.808;20.336;2022-08-21T11:58:47;19.70;99.90
12384;DHT22;6256;63.808;20.336;2022-08-21T12:01:29;19.80;99.90
12384;DHT22;6256;63.808;20.336;2022-08-21T12:06:39;19.70;99.90
12384;DHT22;6256;63.808;20.336;2022-08-21T12:09:28;19.80;99.90
12384;DHT22;6256;63.808;20.336;2022-08-21T12:12:21;19.80;99.90
12384;DHT22;6256;63.808;20.336;2022-08-21T12:14:49;19.90;99.90
12384;DHT22;6256;63.808;20.336;2022-08-21T12:17:23;19.80;99.90
12384;DHT22;6256;63.808;20.336;2022-08-21T12:20:16;19.90;99.90
12384;DHT22;6256;63.808;20.336;2022-08-21T12:22:49;20.00;99.90
12384;DHT22;6256;63.808;20.336;2022-08-21T12:25:19;20.10;99.90
12384;DHT22;6256;63.808;20.336;2022-08-21T12:27:47;20.10;99.90
12384;DHT22;6256;63.808;20.336;2022-08-21T12:30:35;20.20;99.90
12384;DHT22;6256;63.808;20.336;2022-08-21T12:33:03;20.20;99.90
12384;DHT22;6256;63.808;20.336;2022-08-21T12:35:38;20.20;99.90
12384;DHT22;6256;63.808;20.336;2022-08-21T12:38:20;20.10;99.90
12384;DHT22;6256;63.808;20.336;2022-08-21T12:41:07;19.90;99.90
12384;DHT22;6256;63.808;20.336;2022-08-21T12:43:40;19.80;99.90
12384;DHT22;6256;63.808;20.336;2022-08-21T12:46:07;19.80;99.90
12384;DHT22;6256;63.808;20.336;2022-08-21T12:48:52;19.90;99.90
12384;DHT22;6256;63.808;20.336;2022-08-21T12:51:30;20.00;99.90
12384;DHT22;6256;63.808;20.336;2022-08-21T12:53:58;19.80;99.90
12384;DHT22;6256;63.808;20.336;2022-08-21T12:56:30;19.80;99.90
12384;DHT22;6256;63.808;20.336;2022-08-21T12:59:04;19.90;99.90
12384;DHT22;6256;63.808;20.336;2022-08-21T13:01:35;20.00;99.90
12384;DHT22;6256;63.808;20.336;2022-08-21T13:04:08;20.00;99.90
12384;DHT22;6256;63.808;20.336;2022-08-21T13:06:40;20.00;99.90
12384;DHT22;6256;63.808;20.336;2022-08-21T13:09:12;20.10;99.90
12384;DHT22;6256;63.808;20.336;2022-08-21T13:11:43;20.10;99.90
12384;DHT22;6256;63.808;20.336;2022-08-21T13:16:55;19.90;99.90
12384;DHT22;6256;63.808;20.336;2022-08-21T13:19:22;20.00;99.90
12384;DHT22;6256;63.808;20.336;2022-08-21T13:21:49;19.90;99.90
12384;DHT22;6256;63.808;20.336;2022-08-21T13:26:44;19.90;99.90
12384;DHT22;6256;63.808;20.336;2022-08-21T13:29:12;19.90;99.90
12384;DHT22;6256;63.808;20.336;2022-08-21T13:31:41;19.90;99.90
12384;DHT22;6256;63.808;20.336;2022-08-21T13:34:09;19.70;99.90
12384;DHT22;6256;63.808;20.336;2022-08-21T13:36:39;19.60;99.90
12384;DHT22;6256;63.808;20.336;2022-08-21T13:39:11;19.50;99.90
12384;DHT22;6256;63.808;20.336;2022-08-21T13:41:41;19.50;99.90
12384;DHT22;6256;63.808;20.336;2022-08-21T13:44:21;19.50;99.90
12384;DHT22;6256;63.808;20.336;2022-08-21T13:46:48;19.50;99.90
12384;DHT22;6256;63.808;20.336;2022-08-21T13:49:17;19.50;99.90
12384;DHT22;6256;63.808;20.336;2022-08-21T13:51:44;19.50;99.90
12384;DHT22;6256;63.808;20.336;2022-08-21T13:54:15;19.30;99.90
12384;DHT22;6256;63.808;20.336;2022-08-21T13:56:44;19.20;99.90
12384;DHT22;6256;63.808;20.336;2022-08-21T13:59:24;19.10;99.90
12384;DHT22;6256;63.808;20.336;2022-08-21T14:02:01;19.10;99.90
12384;DHT22;6256;63.808;20.336;2022-08-21T14:04:34;18.90;99.90
12384;DHT22;6256;63.808;20.336;2022-08-21T14:07:02;18.70;99.90
12384;DHT22;6256;63.808;20.336;2022-08-21T14:09:34;18.50;99.90
12384;DHT22;6256;63.808;20.336;2022-08-21T14:12:55;18.50;99.90
12384;DHT22;6256;63.808;20.336;2022-08-21T14:15:03;18.40;99.90
12384;DHT22;6256;63.808;20.336;2022-08-21T14:17:36;18.30;99.90
12384;DHT22;6256;63.808;20.336;2022-08-21T14:20:08;18.20;99.90
12384;DHT22;6256;63.808;20.336;2022-08-21T14:22:45;18.20;99.90
12384;DHT22;6256;63.808;20.336;2022-08-21T14:30:26;18.00;99.90
12384;DHT22;6256;63.808;20.336;2022-08-21T14:32:53;18.00;99.90
12384;DHT22;6256;63.808;20.336;2022-08-21T14:35:19;18.00;99.90
12384;DHT22;6256;63.808;20.336;2022-08-21T14:37:47;18.00;99.90
12384;DHT22;6256;63.808;20.336;2022-08-21T14:40:15;18.00;99.90
12384;DHT22;6256;63.808;20.336;2022-08-21T14:42:43;17.90;99.90
12384;DHT22;6256;63.808;20.336;2022-08-21T14:47:41;18.00;99.90
12384;DHT22;6256;63.808;20.336;2022-08-21T14:50:08;18.10;99.90
12384;DHT22;6256;63.808;20.336;2022-08-21T14:52:34;18.00;99.90
12384;DHT22;6256;63.808;20.336;2022-08-21T14:55:00;18.10;99.90
12384;DHT22;6256;63.808;20.336;2022-08-21T14:57:29;18.00;99.90
12384;DHT22;6256;63.808;20.336;2022-08-21T14:59:55;18.00;99.90
12384;DHT22;6256;63.808;20.336;2022-08-21T15:02:21;18.00;99.90
12384;DHT22;6256;63.808;20.336;2022-08-21T15:04:47;18.00;99.90
12384;DHT22;6256;63.808;20.336;2022-08-21T15:07:13;17.90;99.90
12384;DHT22;6256;63.808;20.336;2022-08-21T15:09:38;17.90;99.90
12384;DHT22;6256;63.808;20.336;2022-08-21T15:12:06;17.90;99.90
12384;DHT22;6256;63.808;20.336;2022-08-21T15:14:34;17.80;99.90
12384;DHT22;6256;63.808;20.336;2022-08-21T15:17:01;17.80;99.90
12384;DHT22;6256;63.808;20.336;2022-08-21T15:19:29;17.80;99.90
12384;DHT22;6256;63.808;20.336;2022-08-21T15:21:55;17.70;99.90
12384;DHT22;6256;63.808;20.336;2022-08-21T15:24:21;17.60;99.90
12384;DHT22;6256;63.808;20.336;2022-08-21T15:26:47;17.60;99.90
12384;DHT22;6256;63.808;20.336;2022-08-21T15:29:14;17.70;99.90
12384;DHT22;6256;63.808;20.336;2022-08-21T15:31:57;17.70;99.90
12384;DHT22;6256;63.808;20.336;2022-08-21T15:34:26;17.70;99.90
12384;DHT22;6256;63.808;20.336;2022-08-21T15:36:53;17.70;99.90
12384;DHT22;6256;63.808;20.336;2022-08-21T15:39:19;17.80;99.90
12384;DHT22;6256;63.808;20.336;2022-08-21T15:41:45;17.70;99.90
12384;DHT22;6256;63.808;20.336;2022-08-21T15:44:12;17.70;99.90
12384;DHT22;6256;63.808;20.336;2022-08-21T15:46:39;17.70;99.90
12384;DHT22;6256;63.808;20.336;2022-08-21T15:49:06;17.70;99.90
12384;DHT22;6256;63.808;20.336;2022-08-21T15:51:33;17.70;99.90
12384;DHT22;6256;63.808;20.336;2022-08-21T15:53:59;17.70;99.90
12384;DHT22;6256;63.808;20.336;2022-08-21T15:56:28;17.70;99.90
12384;DHT22;6256;63.808;20.336;2022-08-21T15:58:59;17.60;99.90
12384;DHT22;6256;63.808;20.336;2022-08-21T16:01:26;17.60;99.90
12384;DHT22;6256;63.808;20.336;2022-08-21T16:03:53;17.60;99.90
12384;DHT22;6256;63.808;20.336;2022-08-21T16:06:19;17.50;99.90
12384;DHT22;6256;63.808;20.336;2022-08-21T16:08:45;17.60;99.90
12384;DHT22;6256;63.808;20.336;2022-08-21T16:11:13;17.60;99.90
12384;DHT22;6256;63.808;20.336;2022-08-21T16:13:42;17.50;99.90
12384;DHT22;6256;63.808;20.336;2022-08-21T16:16:11;17.40;99.90
12384;DHT22;6256;63.808;20.336;2022-08-21T16:18:38;17.40;99.90
12384;DHT22;6256;63.808;20.336;2022-08-21T16:21:05;17.30;99.90
12384;DHT22;6256;63.808;20.336;2022-08-21T16:23:30;17.30;99.90
12384;DHT22;6256;63.808;20.336;2022-08-21T16:26:00;17.20;99.90
12384;DHT22;6256;63.808;20.336;2022-08-21T16:28:27;17.20;99.90
12384;DHT22;6256;63.808;20.336;2022-08-21T16:30:53;17.20;99.90
12384;DHT22;6256;63.808;20.336;2022-08-21T16:33:32;17.20;99.90
12384;DHT22;6256;63.808;20.336;2022-08-21T16:35:59;17.10;99.90
12384;DHT22;6256;63.808;20.336;2022-08-21T16:38:26;17.10;99.90
12384;DHT22;6256;63.808;20.336;2022-08-21T16:40:53;17.10;99.90
12384;DHT22;6256;63.808;20.336;2022-08-21T16:43:22;17.10;99.90
12384;DHT22;6256;63.808;20.336;2022-08-21T16:45:49;17.10;99.90
12384;DHT22;6256;63.808;20.336;2022-08-21T16:48:15;17.20;99.90
12384;DHT22;6256;63.808;20.336;2022-08-21T16:50:40;17.00;99.90
12384;DHT22;6256;63.808;20.336;2022-08-21T16:53:07;17.00;99.90
12384;DHT22;6256;63.808;20.336;2022-08-21T16:55:36;17.00;99.90